ESOK/KSD METAR and TAF weather

Enter ICAO airport designator
Station Type Date Time Source
ESOK METAR 2022/06/28 08:20 UTC NOAA

ESOK 280820Z 15007KT 9999 RA FEW012 SCT027 BKN032 20/16 Q1015


Station Type Date Time Source
ESOK Decoded METAR 2022/06/28 08:20 UTC NOAA

Karlstad , Sweden (ESOK) 59-26-41N 013-20-15E
Jun 28, 2022 - 04:20 AM EDT / 2022.06.28 0820 UTC
Wind: from the SSE (150 degrees) at 8 MPH (7 KT):0
Visibility: greater than 7 mile(s):0
Sky conditions: mostly cloudy
Weather: rain
Temperature: 68 F (20 C)
Dew Point: 60 F (16 C)
Relative Humidity: 77%
Pressure (altimeter): 29.97 in. Hg (1015 hPa)
ob: ESOK 280820Z 15007KT 9999 RA FEW012 SCT027 BKN032 20/16 Q1015
cycle: 8

Station Type Date Time Source
ESOK TAF 2022/04/07 18:36 UTC NOAA

TAF TAF
AMD ESOK 071731Z 0718/0806 CNL

Example: see airport list